sensor_id;sensor_type;location;lat;lon;timestamp;P1;durP1;ratioP1;P2;durP2;ratioP2
5979;SDS011;3016;50.308;8.258;2023-07-29T00:02:48;17.53;;;3.10;;
5979;SDS011;3016;50.308;8.258;2023-07-29T00:05:49;21.70;;;3.30;;
5979;SDS011;3016;50.308;8.258;2023-07-29T00:08:50;21.60;;;4.20;;
5979;SDS011;3016;50.308;8.258;2023-07-29T00:11:50;19.20;;;3.73;;
5979;SDS011;3016;50.308;8.258;2023-07-29T00:14:51;18.87;;;3.60;;
5979;SDS011;3016;50.308;8.258;2023-07-29T00:17:52;22.33;;;3.80;;
5979;SDS011;3016;50.308;8.258;2023-07-29T00:20:52;17.73;;;3.77;;
5979;SDS011;3016;50.308;8.258;2023-07-29T00:23:53;18.10;;;4.10;;
5979;SDS011;3016;50.308;8.258;2023-07-29T00:26:54;18.33;;;4.13;;
5979;SDS011;3016;50.308;8.258;2023-07-29T00:29:54;17.77;;;4.07;;
5979;SDS011;3016;50.308;8.258;2023-07-29T00:32:55;18.90;;;3.93;;
5979;SDS011;3016;50.308;8.258;2023-07-29T00:35:55;17.40;;;3.60;;
5979;SDS011;3016;50.308;8.258;2023-07-29T00:38:56;17.40;;;3.60;;
5979;SDS011;3016;50.308;8.258;2023-07-29T00:41:57;18.70;;;3.50;;
5979;SDS011;3016;50.308;8.258;2023-07-29T00:44:58;24.13;;;4.30;;
5979;SDS011;3016;50.308;8.258;2023-07-29T00:47:59;17.33;;;3.30;;
5979;SDS011;3016;50.308;8.258;2023-07-29T00:51:01;17.77;;;3.83;;
5979;SDS011;3016;50.308;8.258;2023-07-29T00:54:02;18.17;;;3.33;;
5979;SDS011;3016;50.308;8.258;2023-07-29T00:57:12;17.77;;;3.93;;
5979;SDS011;3016;50.308;8.258;2023-07-29T01:00:15;18.37;;;4.27;;
5979;SDS011;3016;50.308;8.258;2023-07-29T01:03:16;18.33;;;3.80;;
5979;SDS011;3016;50.308;8.258;2023-07-29T01:06:27;18.17;;;3.87;;
5979;SDS011;3016;50.308;8.258;2023-07-29T01:10:26;18.87;;;3.63;;
5979;SDS011;3016;50.308;8.258;2023-07-29T01:13:43;21.00;;;3.20;;
5979;SDS011;3016;50.308;8.258;2023-07-29T01:16:52;18.40;;;3.83;;
5979;SDS011;3016;50.308;8.258;2023-07-29T01:23:07;16.60;;;3.13;;
5979;SDS011;3016;50.308;8.258;2023-07-29T01:26:08;17.73;;;3.43;;
5979;SDS011;3016;50.308;8.258;2023-07-29T01:29:09;17.30;;;3.23;;
5979;SDS011;3016;50.308;8.258;2023-07-29T01:32:17;17.83;;;3.50;;
5979;SDS011;3016;50.308;8.258;2023-07-29T01:39:07;19.83;;;3.70;;
5979;SDS011;3016;50.308;8.258;2023-07-29T01:42:08;17.50;;;3.40;;
5979;SDS011;3016;50.308;8.258;2023-07-29T01:45:09;17.60;;;3.70;;
5979;SDS011;3016;50.308;8.258;2023-07-29T01:48:10;17.70;;;3.57;;
5979;SDS011;3016;50.308;8.258;2023-07-29T01:51:11;19.00;;;3.27;;
5979;SDS011;3016;50.308;8.258;2023-07-29T01:54:12;18.27;;;3.80;;
5979;SDS011;3016;50.308;8.258;2023-07-29T01:57:13;16.57;;;3.23;;
5979;SDS011;3016;50.308;8.258;2023-07-29T02:00:14;18.30;;;3.70;;
5979;SDS011;3016;50.308;8.258;2023-07-29T02:03:15;17.63;;;4.10;;
5979;SDS011;3016;50.308;8.258;2023-07-29T02:06:16;18.07;;;4.13;;
5979;SDS011;3016;50.308;8.258;2023-07-29T02:09:17;19.70;;;4.53;;
5979;SDS011;3016;50.308;8.258;2023-07-29T02:12:17;18.17;;;4.30;;
5979;SDS011;3016;50.308;8.258;2023-07-29T02:15:18;18.93;;;4.63;;
5979;SDS011;3016;50.308;8.258;2023-07-29T02:18:19;18.40;;;4.60;;
5979;SDS011;3016;50.308;8.258;2023-07-29T02:21:20;19.40;;;4.37;;
5979;SDS011;3016;50.308;8.258;2023-07-29T02:24:20;17.87;;;4.30;;
5979;SDS011;3016;50.308;8.258;2023-07-29T02:27:21;20.07;;;4.70;;
5979;SDS011;3016;50.308;8.258;2023-07-29T02:30:22;20.80;;;4.73;;
5979;SDS011;3016;50.308;8.258;2023-07-29T02:33:22;21.20;;;4.60;;
5979;SDS011;3016;50.308;8.258;2023-07-29T02:36:23;18.07;;;4.90;;
5979;SDS011;3016;50.308;8.258;2023-07-29T02:39:24;18.27;;;4.70;;
5979;SDS011;3016;50.308;8.258;2023-07-29T02:42:24;20.73;;;5.40;;
5979;SDS011;3016;50.308;8.258;2023-07-29T02:45:25;22.53;;;5.47;;
5979;SDS011;3016;50.308;8.258;2023-07-29T02:48:26;20.13;;;5.93;;
5979;SDS011;3016;50.308;8.258;2023-07-29T02:51:28;19.70;;;5.33;;
5979;SDS011;3016;50.308;8.258;2023-07-29T02:54:29;18.97;;;5.17;;
5979;SDS011;3016;50.308;8.258;2023-07-29T02:57:30;20.17;;;5.43;;
5979;SDS011;3016;50.308;8.258;2023-07-29T03:00:31;18.80;;;5.60;;
5979;SDS011;3016;50.308;8.258;2023-07-29T03:03:33;19.33;;;5.00;;
5979;SDS011;3016;50.308;8.258;2023-07-29T03:06:34;20.77;;;5.53;;
5979;SDS011;3016;50.308;8.258;2023-07-29T03:09:34;20.50;;;5.97;;
5979;SDS011;3016;50.308;8.258;2023-07-29T03:12:36;18.77;;;4.47;;
5979;SDS011;3016;50.308;8.258;2023-07-29T03:15:36;18.97;;;4.47;;
5979;SDS011;3016;50.308;8.258;2023-07-29T03:18:37;20.50;;;4.60;;
5979;SDS011;3016;50.308;8.258;2023-07-29T03:21:38;18.50;;;4.97;;
5979;SDS011;3016;50.308;8.258;2023-07-29T03:24:39;18.80;;;4.30;;
5979;SDS011;3016;50.308;8.258;2023-07-29T03:27:40;18.90;;;4.70;;
5979;SDS011;3016;50.308;8.258;2023-07-29T03:30:40;18.27;;;4.73;;
5979;SDS011;3016;50.308;8.258;2023-07-29T03:33:41;19.40;;;5.20;;
5979;SDS011;3016;50.308;8.258;2023-07-29T03:36:42;18.60;;;4.20;;
5979;SDS011;3016;50.308;8.258;2023-07-29T03:39:42;20.50;;;4.30;;
5979;SDS011;3016;50.308;8.258;2023-07-29T03:42:43;18.20;;;4.20;;
5979;SDS011;3016;50.308;8.258;2023-07-29T03:45:44;17.70;;;4.00;;
5979;SDS011;3016;50.308;8.258;2023-07-29T03:48:44;17.90;;;3.60;;
5979;SDS011;3016;50.308;8.258;2023-07-29T03:51:45;21.43;;;3.60;;
5979;SDS011;3016;50.308;8.258;2023-07-29T03:54:46;17.27;;;3.23;;
5979;SDS011;3016;50.308;8.258;2023-07-29T03:57:46;17.60;;;3.80;;
5979;SDS011;3016;50.308;8.258;2023-07-29T04:00:47;16.87;;;3.13;;
5979;SDS011;3016;50.308;8.258;2023-07-29T04:03:48;17.63;;;3.20;;
5979;SDS011;3016;50.308;8.258;2023-07-29T04:06:48;17.00;;;2.63;;
5979;SDS011;3016;50.308;8.258;2023-07-29T04:09:49;16.73;;;2.50;;
5979;SDS011;3016;50.308;8.258;2023-07-29T04:12:50;17.20;;;3.30;;
5979;SDS011;3016;50.308;8.258;2023-07-29T04:15:50;17.20;;;3.20;;
5979;SDS011;3016;50.308;8.258;2023-07-29T04:18:51;16.67;;;2.70;;
5979;SDS011;3016;50.308;8.258;2023-07-29T04:21:52;18.90;;;3.40;;
5979;SDS011;3016;50.308;8.258;2023-07-29T04:24:52;17.83;;;3.03;;
5979;SDS011;3016;50.308;8.258;2023-07-29T04:27:53;16.57;;;2.80;;
5979;SDS011;3016;50.308;8.258;2023-07-29T04:30:55;18.00;;;3.10;;
5979;SDS011;3016;50.308;8.258;2023-07-29T04:33:56;17.07;;;3.30;;
5979;SDS011;3016;50.308;8.258;2023-07-29T04:36:56;16.97;;;2.80;;
5979;SDS011;3016;50.308;8.258;2023-07-29T04:39:58;16.27;;;2.37;;
5979;SDS011;3016;50.308;8.258;2023-07-29T04:43:00;17.43;;;3.33;;
5979;SDS011;3016;50.308;8.258;2023-07-29T04:46:01;19.20;;;3.57;;
5979;SDS011;3016;50.308;8.258;2023-07-29T04:49:02;18.00;;;3.50;;
5979;SDS011;3016;50.308;8.258;2023-07-29T04:52:03;17.10;;;3.07;;
5979;SDS011;3016;50.308;8.258;2023-07-29T04:55:04;17.50;;;2.90;;
5979;SDS011;3016;50.308;8.258;2023-07-29T04:58:05;17.23;;;2.80;;
5979;SDS011;3016;50.308;8.258;2023-07-29T05:01:06;16.90;;;2.77;;
5979;SDS011;3016;50.308;8.258;2023-07-29T05:04:07;16.53;;;2.50;;
5979;SDS011;3016;50.308;8.258;2023-07-29T05:07:07;17.70;;;3.47;;
5979;SDS011;3016;50.308;8.258;2023-07-29T05:10:08;17.53;;;3.43;;
5979;SDS011;3016;50.308;8.258;2023-07-29T05:13:09;18.20;;;3.03;;
5979;SDS011;3016;50.308;8.258;2023-07-29T05:16:09;19.73;;;3.07;;
5979;SDS011;3016;50.308;8.258;2023-07-29T05:19:10;16.43;;;2.43;;
5979;SDS011;3016;50.308;8.258;2023-07-29T05:22:11;20.03;;;3.30;;
5979;SDS011;3016;50.308;8.258;2023-07-29T05:25:12;16.80;;;3.00;;
5979;SDS011;3016;50.308;8.258;2023-07-29T05:28:13;17.67;;;3.33;;
5979;SDS011;3016;50.308;8.258;2023-07-29T05:31:13;16.90;;;2.90;;
5979;SDS011;3016;50.308;8.258;2023-07-29T05:34:14;17.33;;;2.70;;
5979;SDS011;3016;50.308;8.258;2023-07-29T05:37:15;18.00;;;3.20;;
5979;SDS011;3016;50.308;8.258;2023-07-29T05:40:15;18.00;;;3.37;;
5979;SDS011;3016;50.308;8.258;2023-07-29T05:43:17;17.13;;;3.07;;
5979;SDS011;3016;50.308;8.258;2023-07-29T05:46:17;16.60;;;3.07;;
5979;SDS011;3016;50.308;8.258;2023-07-29T05:49:18;21.40;;;3.37;;
5979;SDS011;3016;50.308;8.258;2023-07-29T05:52:19;17.47;;;3.83;;
5979;SDS011;3016;50.308;8.258;2023-07-29T05:55:19;17.10;;;3.50;;
5979;SDS011;3016;50.308;8.258;2023-07-29T05:58:20;17.93;;;3.60;;
5979;SDS011;3016;50.308;8.258;2023-07-29T06:01:20;17.23;;;3.50;;
5979;SDS011;3016;50.308;8.258;2023-07-29T06:04:21;17.87;;;3.97;;
5979;SDS011;3016;50.308;8.258;2023-07-29T06:07:22;17.63;;;3.83;;
5979;SDS011;3016;50.308;8.258;2023-07-29T06:10:23;18.47;;;4.20;;
5979;SDS011;3016;50.308;8.258;2023-07-29T06:13:24;18.40;;;4.23;;
5979;SDS011;3016;50.308;8.258;2023-07-29T06:16:25;18.17;;;3.87;;
5979;SDS011;3016;50.308;8.258;2023-07-29T06:19:25;19.30;;;3.97;;
5979;SDS011;3016;50.308;8.258;2023-07-29T06:22:26;18.90;;;3.60;;
5979;SDS011;3016;50.308;8.258;2023-07-29T06:25:27;19.17;;;4.50;;
5979;SDS011;3016;50.308;8.258;2023-07-29T06:28:28;17.17;;;3.83;;
5979;SDS011;3016;50.308;8.258;2023-07-29T06:31:28;17.07;;;3.73;;
5979;SDS011;3016;50.308;8.258;2023-07-29T06:34:29;17.50;;;4.10;;
5979;SDS011;3016;50.308;8.258;2023-07-29T06:37:30;19.67;;;5.10;;
5979;SDS011;3016;50.308;8.258;2023-07-29T06:40:31;17.50;;;4.13;;
5979;SDS011;3016;50.308;8.258;2023-07-29T06:43:31;18.00;;;4.30;;
5979;SDS011;3016;50.308;8.258;2023-07-29T06:46:32;18.27;;;5.03;;
5979;SDS011;3016;50.308;8.258;2023-07-29T06:49:32;18.00;;;4.43;;
5979;SDS011;3016;50.308;8.258;2023-07-29T06:52:33;17.57;;;4.83;;
5979;SDS011;3016;50.308;8.258;2023-07-29T06:55:34;18.77;;;4.90;;
5979;SDS011;3016;50.308;8.258;2023-07-29T06:58:34;19.93;;;5.63;;
5979;SDS011;3016;50.308;8.258;2023-07-29T07:01:35;18.60;;;4.93;;
5979;SDS011;3016;50.308;8.258;2023-07-29T07:04:36;18.67;;;5.03;;
5979;SDS011;3016;50.308;8.258;2023-07-29T07:07:37;18.80;;;5.20;;
5979;SDS011;3016;50.308;8.258;2023-07-29T07:10:37;18.80;;;4.90;;
5979;SDS011;3016;50.308;8.258;2023-07-29T07:13:38;17.80;;;5.07;;
5979;SDS011;3016;50.308;8.258;2023-07-29T07:16:39;17.37;;;4.83;;
5979;SDS011;3016;50.308;8.258;2023-07-29T07:19:39;19.57;;;5.63;;
5979;SDS011;3016;50.308;8.258;2023-07-29T07:22:40;17.33;;;4.43;;
5979;SDS011;3016;50.308;8.258;2023-07-29T07:25:41;18.50;;;5.07;;
5979;SDS011;3016;50.308;8.258;2023-07-29T07:28:45;19.47;;;5.40;;
5979;SDS011;3016;50.308;8.258;2023-07-29T07:31:52;18.70;;;5.13;;
5979;SDS011;3016;50.308;8.258;2023-07-29T07:34:53;18.30;;;4.20;;
5979;SDS011;3016;50.308;8.258;2023-07-29T07:37:57;17.80;;;4.67;;
5979;SDS011;3016;50.308;8.258;2023-07-29T07:40:59;17.53;;;4.10;;
5979;SDS011;3016;50.308;8.258;2023-07-29T07:44:00;17.60;;;4.30;;
5979;SDS011;3016;50.308;8.258;2023-07-29T07:47:02;21.27;;;4.37;;
5979;SDS011;3016;50.308;8.258;2023-07-29T07:50:02;18.30;;;5.20;;
5979;SDS011;3016;50.308;8.258;2023-07-29T07:53:04;15.80;;;3.40;;
5979;SDS011;3016;50.308;8.258;2023-07-29T07:56:06;18.73;;;4.30;;
5979;SDS011;3016;50.308;8.258;2023-07-29T07:59:07;17.17;;;3.40;;
5979;SDS011;3016;50.308;8.258;2023-07-29T08:02:08;17.93;;;4.07;;
5979;SDS011;3016;50.308;8.258;2023-07-29T08:05:09;18.53;;;4.40;;
5979;SDS011;3016;50.308;8.258;2023-07-29T08:08:09;21.40;;;4.17;;
5979;SDS011;3016;50.308;8.258;2023-07-29T08:11:10;18.47;;;4.27;;
5979;SDS011;3016;50.308;8.258;2023-07-29T08:14:11;18.10;;;3.60;;
5979;SDS011;3016;50.308;8.258;2023-07-29T08:17:11;16.60;;;3.00;;
5979;SDS011;3016;50.308;8.258;2023-07-29T08:20:12;16.77;;;2.47;;
5979;SDS011;3016;50.308;8.258;2023-07-29T08:23:13;18.17;;;2.50;;
5979;SDS011;3016;50.308;8.258;2023-07-29T08:26:13;20.23;;;2.00;;
5979;SDS011;3016;50.308;8.258;2023-07-29T08:29:14;18.03;;;2.53;;
5979;SDS011;3016;50.308;8.258;2023-07-29T08:32:15;17.57;;;2.67;;
5979;SDS011;3016;50.308;8.258;2023-07-29T08:35:16;17.07;;;2.67;;
5979;SDS011;3016;50.308;8.258;2023-07-29T08:38:16;16.20;;;2.10;;
5979;SDS011;3016;50.308;8.258;2023-07-29T08:41:29;16.47;;;2.20;;
5979;SDS011;3016;50.308;8.258;2023-07-29T08:44:42;16.47;;;2.40;;
5979;SDS011;3016;50.308;8.258;2023-07-29T08:47:44;16.70;;;2.13;;
5979;SDS011;3016;50.308;8.258;2023-07-29T08:50:44;17.47;;;2.57;;
5979;SDS011;3016;50.308;8.258;2023-07-29T08:53:46;16.70;;;1.80;;
5979;SDS011;3016;50.308;8.258;2023-07-29T08:56:47;22.00;;;2.20;;
5979;SDS011;3016;50.308;8.258;2023-07-29T08:59:48;17.27;;;1.97;;
5979;SDS011;3016;50.308;8.258;2023-07-29T09:02:48;17.50;;;2.17;;
5979;SDS011;3016;50.308;8.258;2023-07-29T09:05:49;17.90;;;2.37;;
5979;SDS011;3016;50.308;8.258;2023-07-29T09:08:51;17.33;;;2.20;;
5979;SDS011;3016;50.308;8.258;2023-07-29T09:11:56;20.10;;;2.00;;
5979;SDS011;3016;50.308;8.258;2023-07-29T09:14:57;16.93;;;2.03;;
5979;SDS011;3016;50.308;8.258;2023-07-29T09:17:58;17.40;;;2.17;;
5979;SDS011;3016;50.308;8.258;2023-07-29T09:20:59;16.93;;;2.03;;
5979;SDS011;3016;50.308;8.258;2023-07-29T09:24:03;19.57;;;2.17;;
5979;SDS011;3016;50.308;8.258;2023-07-29T09:27:05;17.70;;;2.53;;
5979;SDS011;3016;50.308;8.258;2023-07-29T09:30:06;19.93;;;2.10;;
5979;SDS011;3016;50.308;8.258;2023-07-29T09:33:15;16.47;;;1.70;;
5979;SDS011;3016;50.308;8.258;2023-07-29T09:36:20;17.13;;;1.80;;
5979;SDS011;3016;50.308;8.258;2023-07-29T09:39:22;18.77;;;1.90;;
5979;SDS011;3016;50.308;8.258;2023-07-29T09:42:24;17.30;;;2.00;;
5979;SDS011;3016;50.308;8.258;2023-07-29T09:45:25;16.77;;;2.10;;
5979;SDS011;3016;50.308;8.258;2023-07-29T09:48:27;18.07;;;1.63;;
5979;SDS011;3016;50.308;8.258;2023-07-29T09:51:31;17.40;;;1.73;;
5979;SDS011;3016;50.308;8.258;2023-07-29T09:54:32;17.23;;;1.80;;
5979;SDS011;3016;50.308;8.258;2023-07-29T09:57:32;16.90;;;1.83;;
5979;SDS011;3016;50.308;8.258;2023-07-29T10:00:34;17.30;;;1.90;;
5979;SDS011;3016;50.308;8.258;2023-07-29T10:03:35;17.20;;;1.93;;
5979;SDS011;3016;50.308;8.258;2023-07-29T10:06:36;17.73;;;1.80;;
5979;SDS011;3016;50.308;8.258;2023-07-29T10:09:39;16.93;;;1.70;;
5979;SDS011;3016;50.308;8.258;2023-07-29T10:12:40;17.37;;;2.17;;
5979;SDS011;3016;50.308;8.258;2023-07-29T10:15:42;17.20;;;1.83;;
5979;SDS011;3016;50.308;8.258;2023-07-29T10:18:45;17.23;;;1.80;;
5979;SDS011;3016;50.308;8.258;2023-07-29T10:21:46;19.43;;;2.13;;
5979;SDS011;3016;50.308;8.258;2023-07-29T10:24:50;18.17;;;1.93;;
5979;SDS011;3016;50.308;8.258;2023-07-29T10:28:00;18.00;;;1.90;;
5979;SDS011;3016;50.308;8.258;2023-07-29T10:31:07;17.23;;;1.63;;
5979;SDS011;3016;50.308;8.258;2023-07-29T10:34:08;17.40;;;1.77;;
5979;SDS011;3016;50.308;8.258;2023-07-29T10:37:10;18.60;;;2.10;;
5979;SDS011;3016;50.308;8.258;2023-07-29T10:40:11;17.90;;;1.90;;
5979;SDS011;3016;50.308;8.258;2023-07-29T10:43:12;17.70;;;1.93;;
5979;SDS011;3016;50.308;8.258;2023-07-29T10:46:20;17.90;;;2.30;;
5979;SDS011;3016;50.308;8.258;2023-07-29T10:49:25;17.70;;;1.80;;
5979;SDS011;3016;50.308;8.258;2023-07-29T10:52:37;17.30;;;1.80;;
5979;SDS011;3016;50.308;8.258;2023-07-29T10:55:43;19.00;;;1.97;;
5979;SDS011;3016;50.308;8.258;2023-07-29T10:58:44;17.60;;;1.83;;
5979;SDS011;3016;50.308;8.258;2023-07-29T11:01:56;20.63;;;1.87;;
5979;SDS011;3016;50.308;8.258;2023-07-29T11:04:58;17.50;;;1.77;;
5979;SDS011;3016;50.308;8.258;2023-07-29T11:08:15;19.53;;;2.10;;
5979;SDS011;3016;50.308;8.258;2023-07-29T11:11:18;18.53;;;1.70;;
5979;SDS011;3016;50.308;8.258;2023-07-29T11:14:19;18.27;;;2.00;;
5979;SDS011;3016;50.308;8.258;2023-07-29T11:17:19;17.83;;;2.03;;
5979;SDS011;3016;50.308;8.258;2023-07-29T11:20:21;18.37;;;2.27;;
5979;SDS011;3016;50.308;8.258;2023-07-29T11:23:28;17.90;;;1.83;;
5979;SDS011;3016;50.308;8.258;2023-07-29T11:26:36;17.80;;;1.40;;
5979;SDS011;3016;50.308;8.258;2023-07-29T11:29:37;18.30;;;1.70;;
5979;SDS011;3016;50.308;8.258;2023-07-29T11:32:39;22.80;;;1.83;;
5979;SDS011;3016;50.308;8.258;2023-07-29T11:35:41;18.07;;;1.80;;
5979;SDS011;3016;50.308;8.258;2023-07-29T11:38:42;18.20;;;1.83;;
5979;SDS011;3016;50.308;8.258;2023-07-29T11:41:44;18.07;;;1.70;;
5979;SDS011;3016;50.308;8.258;2023-07-29T11:44:46;19.37;;;1.60;;
5979;SDS011;3016;50.308;8.258;2023-07-29T11:47:46;17.83;;;1.60;;
5979;SDS011;3016;50.308;8.258;2023-07-29T11:50:47;18.30;;;1.80;;
5979;SDS011;3016;50.308;8.258;2023-07-29T11:53:48;17.90;;;2.13;;
5979;SDS011;3016;50.308;8.258;2023-07-29T11:56:49;18.97;;;1.40;;
5979;SDS011;3016;50.308;8.258;2023-07-29T11:59:50;17.63;;;1.53;;
5979;SDS011;3016;50.308;8.258;2023-07-29T12:02:52;18.63;;;1.87;;
5979;SDS011;3016;50.308;8.258;2023-07-29T12:05:53;18.93;;;2.03;;
5979;SDS011;3016;50.308;8.258;2023-07-29T12:08:54;19.00;;;2.20;;
5979;SDS011;3016;50.308;8.258;2023-07-29T12:11:55;18.23;;;1.90;;
5979;SDS011;3016;50.308;8.258;2023-07-29T12:14:56;19.80;;;2.70;;
5979;SDS011;3016;50.308;8.258;2023-07-29T12:17:58;17.63;;;1.50;;
5979;SDS011;3016;50.308;8.258;2023-07-29T12:20:59;17.90;;;1.63;;
5979;SDS011;3016;50.308;8.258;2023-07-29T12:24:02;18.10;;;1.83;;
5979;SDS011;3016;50.308;8.258;2023-07-29T12:27:03;18.20;;;1.80;;
5979;SDS011;3016;50.308;8.258;2023-07-29T12:30:05;17.60;;;1.87;;
5979;SDS011;3016;50.308;8.258;2023-07-29T12:33:06;22.40;;;1.80;;
5979;SDS011;3016;50.308;8.258;2023-07-29T12:36:07;17.57;;;1.60;;
5979;SDS011;3016;50.308;8.258;2023-07-29T12:39:15;17.87;;;1.67;;
5979;SDS011;3016;50.308;8.258;2023-07-29T12:42:20;18.07;;;1.90;;
5979;SDS011;3016;50.308;8.258;2023-07-29T12:45:21;18.03;;;1.70;;
5979;SDS011;3016;50.308;8.258;2023-07-29T12:48:26;19.80;;;2.20;;
5979;SDS011;3016;50.308;8.258;2023-07-29T12:51:27;18.60;;;1.90;;
5979;SDS011;3016;50.308;8.258;2023-07-29T12:54:28;19.37;;;1.70;;
5979;SDS011;3016;50.308;8.258;2023-07-29T12:57:28;17.97;;;1.90;;
5979;SDS011;3016;50.308;8.258;2023-07-29T13:00:29;18.70;;;1.80;;
5979;SDS011;3016;50.308;8.258;2023-07-29T13:03:30;17.90;;;1.83;;
5979;SDS011;3016;50.308;8.258;2023-07-29T13:06:31;18.20;;;2.00;;
5979;SDS011;3016;50.308;8.258;2023-07-29T13:09:31;17.57;;;1.40;;
5979;SDS011;3016;50.308;8.258;2023-07-29T13:12:32;19.57;;;2.90;;
5979;SDS011;3016;50.308;8.258;2023-07-29T13:15:33;18.20;;;1.90;;
5979;SDS011;3016;50.308;8.258;2023-07-29T13:18:33;17.53;;;1.73;;
5979;SDS011;3016;50.308;8.258;2023-07-29T13:21:35;18.37;;;1.87;;
5979;SDS011;3016;50.308;8.258;2023-07-29T13:24:36;17.70;;;1.50;;
5979;SDS011;3016;50.308;8.258;2023-07-29T13:27:37;18.87;;;1.90;;
5979;SDS011;3016;50.308;8.258;2023-07-29T13:30:38;18.83;;;1.93;;
5979;SDS011;3016;50.308;8.258;2023-07-29T13:33:39;19.13;;;2.10;;
5979;SDS011;3016;50.308;8.258;2023-07-29T13:36:40;17.93;;;1.80;;
5979;SDS011;3016;50.308;8.258;2023-07-29T13:39:40;18.17;;;1.90;;
5979;SDS011;3016;50.308;8.258;2023-07-29T13:42:41;18.30;;;2.30;;
5979;SDS011;3016;50.308;8.258;2023-07-29T13:45:42;17.97;;;1.80;;
5979;SDS011;3016;50.308;8.258;2023-07-29T13:48:42;18.20;;;1.90;;
5979;SDS011;3016;50.308;8.258;2023-07-29T13:51:43;19.30;;;2.10;;
5979;SDS011;3016;50.308;8.258;2023-07-29T13:54:44;18.20;;;1.47;;
5979;SDS011;3016;50.308;8.258;2023-07-29T13:57:45;17.90;;;1.63;;
5979;SDS011;3016;50.308;8.258;2023-07-29T14:00:45;18.73;;;1.90;;
5979;SDS011;3016;50.308;8.258;2023-07-29T14:03:46;18.80;;;1.80;;
5979;SDS011;3016;50.308;8.258;2023-07-29T14:06:47;19.03;;;1.73;;
5979;SDS011;3016;50.308;8.258;2023-07-29T14:09:47;21.57;;;2.43;;
5979;SDS011;3016;50.308;8.258;2023-07-29T14:12:48;22.73;;;3.97;;
5979;SDS011;3016;50.308;8.258;2023-07-29T14:15:49;18.00;;;1.77;;
5979;SDS011;3016;50.308;8.258;2023-07-29T14:18:50;18.47;;;1.73;;
5979;SDS011;3016;50.308;8.258;2023-07-29T14:21:50;18.97;;;2.43;;
5979;SDS011;3016;50.308;8.258;2023-07-29T14:24:51;18.10;;;1.93;;
5979;SDS011;3016;50.308;8.258;2023-07-29T14:27:52;18.17;;;1.90;;
5979;SDS011;3016;50.308;8.258;2023-07-29T14:30:52;18.03;;;1.70;;
5979;SDS011;3016;50.308;8.258;2023-07-29T14:33:53;18.70;;;1.77;;
5979;SDS011;3016;50.308;8.258;2023-07-29T14:36:54;18.67;;;2.03;;
5979;SDS011;3016;50.308;8.258;2023-07-29T14:39:54;18.70;;;1.93;;
5979;SDS011;3016;50.308;8.258;2023-07-29T14:42:55;19.07;;;2.30;;
5979;SDS011;3016;50.308;8.258;2023-07-29T14:45:56;18.80;;;2.10;;
5979;SDS011;3016;50.308;8.258;2023-07-29T14:48:56;18.30;;;1.87;;
5979;SDS011;3016;50.308;8.258;2023-07-29T14:51:58;20.33;;;2.10;;
5979;SDS011;3016;50.308;8.258;2023-07-29T14:54:58;18.00;;;1.80;;
5979;SDS011;3016;50.308;8.258;2023-07-29T14:57:59;18.70;;;2.17;;
5979;SDS011;3016;50.308;8.258;2023-07-29T15:01:00;21.63;;;4.57;;
5979;SDS011;3016;50.308;8.258;2023-07-29T15:04:00;19.03;;;2.10;;
5979;SDS011;3016;50.308;8.258;2023-07-29T15:07:02;18.40;;;2.10;;
5979;SDS011;3016;50.308;8.258;2023-07-29T15:10:02;18.60;;;1.90;;
5979;SDS011;3016;50.308;8.258;2023-07-29T15:13:04;18.80;;;2.40;;
5979;SDS011;3016;50.308;8.258;2023-07-29T15:16:05;18.90;;;2.40;;
5979;SDS011;3016;50.308;8.258;2023-07-29T15:19:05;19.80;;;2.30;;
5979;SDS011;3016;50.308;8.258;2023-07-29T15:22:06;18.57;;;1.90;;
5979;SDS011;3016;50.308;8.258;2023-07-29T15:25:08;18.40;;;1.83;;
5979;SDS011;3016;50.308;8.258;2023-07-29T15:28:09;18.23;;;1.90;;
5979;SDS011;3016;50.308;8.258;2023-07-29T15:31:11;19.27;;;2.40;;
5979;SDS011;3016;50.308;8.258;2023-07-29T15:34:13;20.27;;;2.20;;
5979;SDS011;3016;50.308;8.258;2023-07-29T15:37:13;19.53;;;2.00;;
5979;SDS011;3016;50.308;8.258;2023-07-29T15:40:14;19.10;;;2.30;;
5979;SDS011;3016;50.308;8.258;2023-07-29T15:43:15;19.20;;;2.80;;
5979;SDS011;3016;50.308;8.258;2023-07-29T15:46:15;19.90;;;2.87;;
5979;SDS011;3016;50.308;8.258;2023-07-29T15:49:16;19.07;;;2.70;;
5979;SDS011;3016;50.308;8.258;2023-07-29T15:52:17;20.93;;;2.80;;
5979;SDS011;3016;50.308;8.258;2023-07-29T15:55:17;19.93;;;2.97;;
5979;SDS011;3016;50.308;8.258;2023-07-29T15:58:18;19.90;;;3.03;;
5979;SDS011;3016;50.308;8.258;2023-07-29T16:01:19;22.03;;;3.60;;
5979;SDS011;3016;50.308;8.258;2023-07-29T16:04:19;18.77;;;2.60;;
5979;SDS011;3016;50.308;8.258;2023-07-29T16:07:20;18.90;;;2.23;;
5979;SDS011;3016;50.308;8.258;2023-07-29T16:10:21;18.87;;;2.43;;
5979;SDS011;3016;50.308;8.258;2023-07-29T16:13:21;19.70;;;2.60;;
5979;SDS011;3016;50.308;8.258;2023-07-29T16:16:22;19.37;;;2.03;;
5979;SDS011;3016;50.308;8.258;2023-07-29T16:19:24;18.80;;;1.70;;
5979;SDS011;3016;50.308;8.258;2023-07-29T16:22:27;19.10;;;2.37;;
5979;SDS011;3016;50.308;8.258;2023-07-29T16:25:28;18.53;;;1.90;;
5979;SDS011;3016;50.308;8.258;2023-07-29T16:28:29;18.70;;;2.00;;
5979;SDS011;3016;50.308;8.258;2023-07-29T16:31:30;18.57;;;2.23;;
5979;SDS011;3016;50.308;8.258;2023-07-29T16:34:30;19.20;;;2.47;;
5979;SDS011;3016;50.308;8.258;2023-07-29T16:37:31;18.47;;;2.20;;
5979;SDS011;3016;50.308;8.258;2023-07-29T16:40:32;19.57;;;2.63;;
5979;SDS011;3016;50.308;8.258;2023-07-29T16:43:33;18.87;;;2.70;;
5979;SDS011;3016;50.308;8.258;2023-07-29T16:46:33;19.00;;;2.00;;
5979;SDS011;3016;50.308;8.258;2023-07-29T16:49:36;19.10;;;2.40;;
5979;SDS011;3016;50.308;8.258;2023-07-29T16:52:37;18.60;;;2.17;;
5979;SDS011;3016;50.308;8.258;2023-07-29T16:55:38;18.17;;;2.17;;
5979;SDS011;3016;50.308;8.258;2023-07-29T16:58:39;19.27;;;2.57;;
5979;SDS011;3016;50.308;8.258;2023-07-29T17:01:39;19.33;;;2.10;;
5979;SDS011;3016;50.308;8.258;2023-07-29T17:04:40;18.70;;;2.23;;
5979;SDS011;3016;50.308;8.258;2023-07-29T17:07:41;18.83;;;2.37;;
5979;SDS011;3016;50.308;8.258;2023-07-29T17:10:41;18.43;;;2.03;;
5979;SDS011;3016;50.308;8.258;2023-07-29T17:13:42;22.33;;;2.30;;
5979;SDS011;3016;50.308;8.258;2023-07-29T17:16:43;18.10;;;1.93;;
5979;SDS011;3016;50.308;8.258;2023-07-29T17:19:43;19.23;;;1.83;;
5979;SDS011;3016;50.308;8.258;2023-07-29T17:22:47;19.53;;;2.10;;
5979;SDS011;3016;50.308;8.258;2023-07-29T17:25:48;17.60;;;1.70;;
5979;SDS011;3016;50.308;8.258;2023-07-29T17:28:48;18.90;;;2.30;;
5979;SDS011;3016;50.308;8.258;2023-07-29T17:31:49;18.13;;;1.70;;
5979;SDS011;3016;50.308;8.258;2023-07-29T17:34:50;19.00;;;2.30;;
5979;SDS011;3016;50.308;8.258;2023-07-29T17:37:50;18.70;;;2.27;;
5979;SDS011;3016;50.308;8.258;2023-07-29T17:40:51;18.40;;;2.37;;
5979;SDS011;3016;50.308;8.258;2023-07-29T17:43:53;18.00;;;1.97;;
5979;SDS011;3016;50.308;8.258;2023-07-29T17:46:53;19.47;;;2.23;;
5979;SDS011;3016;50.308;8.258;2023-07-29T17:49:55;18.40;;;2.30;;
5979;SDS011;3016;50.308;8.258;2023-07-29T17:52:56;18.20;;;1.87;;
5979;SDS011;3016;50.308;8.258;2023-07-29T17:55:58;18.57;;;1.80;;
5979;SDS011;3016;50.308;8.258;2023-07-29T17:58:58;19.27;;;2.30;;
5979;SDS011;3016;50.308;8.258;2023-07-29T18:01:59;19.10;;;2.23;;
5979;SDS011;3016;50.308;8.258;2023-07-29T18:05:00;18.30;;;2.07;;
5979;SDS011;3016;50.308;8.258;2023-07-29T18:08:01;18.63;;;2.10;;
5979;SDS011;3016;50.308;8.258;2023-07-29T18:11:02;18.63;;;2.20;;
5979;SDS011;3016;50.308;8.258;2023-07-29T18:14:03;19.10;;;2.07;;
5979;SDS011;3016;50.308;8.258;2023-07-29T18:17:03;18.70;;;2.33;;
5979;SDS011;3016;50.308;8.258;2023-07-29T18:20:05;18.10;;;2.00;;
5979;SDS011;3016;50.308;8.258;2023-07-29T18:23:06;19.03;;;2.50;;
5979;SDS011;3016;50.308;8.258;2023-07-29T18:26:07;18.87;;;2.23;;
5979;SDS011;3016;50.308;8.258;2023-07-29T18:29:08;20.83;;;3.10;;
5979;SDS011;3016;50.308;8.258;2023-07-29T18:32:08;20.77;;;3.37;;
5979;SDS011;3016;50.308;8.258;2023-07-29T18:35:09;18.40;;;2.23;;
5979;SDS011;3016;50.308;8.258;2023-07-29T18:38:17;18.07;;;2.00;;